Time;durP1;ratioP1;P1;durP2;ratioP2;P2;SDS_P1;SDS_P2;PMS_P1;PMS_P2;Temp;Humidity;BMP_temperature;BMP_pressure;BME280_temperature;BME280_humidity;BME280_pressure;Samples;Min_cycle;Max_cycle;Signal;HPM_P1;HPM_P2
2023/06/24 00:00:37;;;;;;;2.53;1.55;;;;;;;;;;5003747;28;20133;-61
2023/06/24 00:03:08;;;;;;;3.17;1.98;;;;;;;;;;5006917;28;20074;-62
2023/06/24 00:05:38;;;;;;;3.08;1.73;;;;;;;;;;5001282;28;20438;-60
2023/06/24 00:08:08;;;;;;;3.47;1.88;;;;;;;;;;5006969;28;20553;-62
2023/06/24 00:10:36;;;;;;;4.28;1.83;;;;;;;;;;5007587;28;20045;-61
2023/06/24 00:13:05;;;;;;;5.22;1.85;;;;;;;;;;5008606;28;20700;-61
2023/06/24 00:15:34;;;;;;;3.08;1.98;;;;;;;;;;5005428;28;20114;-60
2023/06/24 00:18:05;;;;;;;3.67;1.95;;;;;;;;;;5004118;28;20037;-69
2023/06/24 00:20:36;;;;;;;2.53;1.40;;;;;;;;;;5001745;28;21633;-63
2023/06/24 00:23:05;;;;;;;4.25;1.95;;;;;;;;;;5001047;28;20644;-62
2023/06/24 00:25:33;;;;;;;4.18;2.28;;;;;;;;;;5003411;28;20100;-61
2023/06/24 00:28:02;;;;;;;3.45;2.22;;;;;;;;;;5008366;28;20127;-61
2023/06/24 00:30:30;;;;;;;2.63;1.77;;;;;;;;;;5004745;28;20506;-60
2023/06/24 00:32:59;;;;;;;4.75;2.28;;;;;;;;;;5005846;28;20073;-61
2023/06/24 00:35:28;;;;;;;3.05;2.08;;;;;;;;;;4999088;28;20050;-64
2023/06/24 00:37:58;;;;;;;4.18;1.90;;;;;;;;;;5000192;28;20143;-62
2023/06/24 00:40:27;;;;;;;2.80;1.60;;;;;;;;;;4997954;28;20573;-67
2023/06/24 00:42:55;;;;;;;4.18;1.98;;;;;;;;;;5000796;28;20089;-64
2023/06/24 00:45:23;;;;;;;4.50;2.17;;;;;;;;;;5002224;28;20107;-65
2023/06/24 00:47:54;;;;;;;3.40;1.60;;;;;;;;;;5001321;28;20100;-60
2023/06/24 00:50:22;;;;;;;3.10;1.70;;;;;;;;;;4999841;28;20058;-65
2023/06/24 00:52:51;;;;;;;5.88;1.73;;;;;;;;;;4999228;28;20097;-62
2023/06/24 00:55:21;;;;;;;3.08;1.45;;;;;;;;;;4999617;28;20058;-67
2023/06/24 00:57:51;;;;;;;4.43;2.13;;;;;;;;;;5004451;28;20050;-62
2023/06/24 01:00:21;;;;;;;2.92;1.65;;;;;;;;;;5003717;28;20495;-61
2023/06/24 01:02:50;;;;;;;2.65;1.85;;;;;;;;;;5035105;23;20072;-67
2023/06/24 01:05:23;;;;;;;2.88;1.65;;;;;;;;;;5045466;28;20425;-69
2023/06/24 01:07:55;;;;;;;2.45;1.52;;;;;;;;;;5041210;28;20472;-68
2023/06/24 01:10:25;;;;;;;4.90;2.00;;;;;;;;;;5040913;28;20055;-70
2023/06/24 01:12:54;;;;;;;2.28;1.70;;;;;;;;;;5040268;28;20048;-69
2023/06/24 01:15:23;;;;;;;2.72;1.55;;;;;;;;;;5033477;28;20181;-69
2023/06/24 01:17:55;;;;;;;3.08;1.77;;;;;;;;;;5033510;28;20654;-69
2023/06/24 01:20:27;;;;;;;2.00;1.50;;;;;;;;;;5038206;28;20831;-71
2023/06/24 01:23:19;;;;;;;2.30;1.70;;;;;;;;;;5038632;28;20060;-69
2023/06/24 01:26:00;;;;;;;4.30;2.05;;;;;;;;;;5024394;28;20102;-74
2023/06/24 01:28:35;;;;;;;3.88;2.10;;;;;;;;;;5037992;28;20119;-68
2023/06/24 01:31:23;;;;;;;4.18;2.20;;;;;;;;;;5036764;28;20044;-70
2023/06/24 01:33:56;;;;;;;3.08;1.70;;;;;;;;;;5035379;28;20623;-68
2023/06/24 01:36:25;;;;;;;3.53;1.90;;;;;;;;;;5037060;28;20505;-67
2023/06/24 01:38:58;;;;;;;3.40;1.80;;;;;;;;;;5035123;28;20053;-69
2023/06/24 01:41:28;;;;;;;3.58;2.08;;;;;;;;;;5033260;28;20052;-69
2023/06/24 01:43:58;;;;;;;3.38;1.80;;;;;;;;;;5037612;28;20292;-71
2023/06/24 01:46:27;;;;;;;3.83;1.63;;;;;;;;;;5038879;28;20054;-70
2023/06/24 01:48:59;;;;;;;2.63;1.80;;;;;;;;;;5038733;28;20060;-69
2023/06/24 01:51:28;;;;;;;3.47;2.10;;;;;;;;;;5036639;28;20794;-69
2023/06/24 01:54:01;;;;;;;5.85;2.15;;;;;;;;;;5037947;28;20135;-67
2023/06/24 01:56:30;;;;;;;5.45;2.20;;;;;;;;;;5034729;28;20064;-68
2023/06/24 01:59:00;;;;;;;3.08;1.83;;;;;;;;;;5038017;28;20077;-65
2023/06/24 02:01:29;;;;;;;4.28;2.22;;;;;;;;;;5037506;28;20099;-67
2023/06/24 02:04:00;;;;;;;3.35;2.10;;;;;;;;;;5033278;28;20057;-66
2023/06/24 02:06:30;;;;;;;4.13;1.92;;;;;;;;;;5033053;28;20068;-66
2023/06/24 02:08:59;;;;;;;4.07;2.08;;;;;;;;;;5035192;28;20099;-69
2023/06/24 02:11:29;;;;;;;3.40;2.00;;;;;;;;;;5033451;28;20563;-66
2023/06/24 02:14:00;;;;;;;2.70;1.63;;;;;;;;;;5038585;28;20134;-72
2023/06/24 02:16:29;;;;;;;3.00;1.48;;;;;;;;;;5034775;28;20053;-69
2023/06/24 02:18:59;;;;;;;3.58;2.20;;;;;;;;;;5039434;28;20107;-67
2023/06/24 02:21:28;;;;;;;3.97;1.90;;;;;;;;;;5033727;28;20122;-68
2023/06/24 02:23:57;;;;;;;2.97;1.55;;;;;;;;;;5037651;28;20041;-71
2023/06/24 02:26:27;;;;;;;3.80;1.85;;;;;;;;;;5035043;28;20106;-70
2023/06/24 02:28:56;;;;;;;3.92;1.90;;;;;;;;;;5037946;28;20102;-70
2023/06/24 02:31:24;;;;;;;3.28;1.98;;;;;;;;;;5038356;28;20106;-67
2023/06/24 02:33:53;;;;;;;3.42;1.48;;;;;;;;;;5033272;28;20132;-67
2023/06/24 02:36:23;;;;;;;4.82;1.77;;;;;;;;;;5034413;28;20099;-70
2023/06/24 02:38:52;;;;;;;2.75;1.73;;;;;;;;;;5038837;28;20505;-74
2023/06/24 02:41:20;;;;;;;3.70;1.70;;;;;;;;;;5036923;28;20041;-73
2023/06/24 02:43:48;;;;;;;3.15;1.88;;;;;;;;;;5039170;28;20049;-69
2023/06/24 02:46:17;;;;;;;3.58;1.77;;;;;;;;;;5035384;28;20207;-69
2023/06/24 02:48:46;;;;;;;3.05;1.98;;;;;;;;;;5035824;28;20064;-72
2023/06/24 02:51:15;;;;;;;2.33;1.48;;;;;;;;;;5039387;28;20084;-69
2023/06/24 02:53:45;;;;;;;2.97;1.60;;;;;;;;;;5040619;28;20106;-70
2023/06/24 02:56:14;;;;;;;6.85;2.10;;;;;;;;;;5039110;28;20060;-67
2023/06/24 02:58:43;;;;;;;3.15;1.95;;;;;;;;;;5036526;28;20087;-67
2023/06/24 03:01:12;;;;;;;2.55;1.73;;;;;;;;;;5041869;28;20063;-67
2023/06/24 03:03:42;;;;;;;3.92;2.30;;;;;;;;;;5042616;28;20053;-67
2023/06/24 03:06:12;;;;;;;2.03;1.45;;;;;;;;;;5041281;28;20048;-68
2023/06/24 03:08:40;;;;;;;4.20;2.08;;;;;;;;;;5040920;28;20095;-67
2023/06/24 03:11:13;;;;;;;3.35;1.75;;;;;;;;;;5030369;28;20583;-70
2023/06/24 03:13:42;;;;;;;3.30;1.92;;;;;;;;;;5039423;28;20392;-71
2023/06/24 03:16:12;;;;;;;3.85;2.17;;;;;;;;;;5037884;28;20053;-67
2023/06/24 03:18:42;;;;;;;2.85;1.63;;;;;;;;;;5038861;28;20249;-68
2023/06/24 03:21:11;;;;;;;4.07;1.80;;;;;;;;;;5041978;28;20052;-68
2023/06/24 03:23:40;;;;;;;3.00;1.75;;;;;;;;;;5042395;28;20121;-66
2023/06/24 03:26:08;;;;;;;4.03;1.98;;;;;;;;;;5041351;28;20095;-67
2023/06/24 03:28:39;;;;;;;3.85;1.90;;;;;;;;;;5041602;28;20063;-69
2023/06/24 03:31:07;;;;;;;3.88;1.95;;;;;;;;;;5040428;28;20083;-75
2023/06/24 03:33:36;;;;;;;3.03;1.65;;;;;;;;;;5041467;28;20045;-69
2023/06/24 03:36:04;;;;;;;3.53;2.22;;;;;;;;;;5040125;28;20075;-69
2023/06/24 03:38:33;;;;;;;3.33;1.98;;;;;;;;;;5040357;28;20072;-69
2023/06/24 03:41:01;;;;;;;3.55;1.83;;;;;;;;;;5039786;28;20494;-67
2023/06/24 03:43:29;;;;;;;4.90;1.77;;;;;;;;;;5035024;28;20065;-67
2023/06/24 03:46:00;;;;;;;3.92;2.05;;;;;;;;;;5040124;28;20049;-68
2023/06/24 03:48:28;;;;;;;2.17;1.63;;;;;;;;;;5038670;28;20734;-68
2023/06/24 03:50:57;;;;;;;4.50;2.13;;;;;;;;;;5040694;28;20104;-68
2023/06/24 03:53:25;;;;;;;2.08;1.50;;;;;;;;;;5039969;28;20076;-70
2023/06/24 03:55:53;;;;;;;3.15;1.77;;;;;;;;;;5041245;28;20041;-69
2023/06/24 03:58:22;;;;;;;2.67;1.90;;;;;;;;;;5041565;28;20072;-69
2023/06/24 04:00:50;;;;;;;2.92;1.92;;;;;;;;;;5038123;28;20044;-67
2023/06/24 04:03:20;;;;;;;4.22;2.17;;;;;;;;;;5035296;28;20145;-68
2023/06/24 04:05:48;;;;;;;2.45;1.50;;;;;;;;;;5040725;28;20060;-68
2023/06/24 04:08:17;;;;;;;3.40;1.88;;;;;;;;;;5037722;28;20053;-68
2023/06/24 04:10:45;;;;;;;3.80;1.77;;;;;;;;;;5040424;28;20099;-68
2023/06/24 04:13:14;;;;;;;3.03;1.65;;;;;;;;;;5038286;28;20077;-69
2023/06/24 04:15:42;;;;;;;3.13;1.77;;;;;;;;;;5038574;28;20075;-69
2023/06/24 04:18:11;;;;;;;3.90;2.03;;;;;;;;;;5038821;28;20045;-69
2023/06/24 04:20:40;;;;;;;2.70;1.70;;;;;;;;;;5041042;28;20091;-71
2023/06/24 04:23:10;;;;;;;3.60;2.05;;;;;;;;;;5037973;28;21470;-69
2023/06/24 04:25:39;;;;;;;3.20;1.50;;;;;;;;;;5037127;28;20462;-73
2023/06/24 04:28:07;;;;;;;3.15;2.08;;;;;;;;;;5036290;28;20489;-74
2023/06/24 04:30:38;;;;;;;4.13;1.67;;;;;;;;;;5034215;28;20465;-70
2023/06/24 04:33:06;;;;;;;4.13;1.90;;;;;;;;;;5039069;28;20593;-67
2023/06/24 04:35:35;;;;;;;3.08;1.75;;;;;;;;;;5038577;28;20425;-68
2023/06/24 04:38:05;;;;;;;4.72;1.90;;;;;;;;;;5037897;28;20041;-67
2023/06/24 04:40:33;;;;;;;4.35;1.85;;;;;;;;;;5040429;28;20405;-67
2023/06/24 04:43:02;;;;;;;3.03;2.17;;;;;;;;;;5040237;28;20406;-67
2023/06/24 04:45:30;;;;;;;3.58;1.80;;;;;;;;;;5038867;28;20084;-69
2023/06/24 04:47:58;;;;;;;4.40;1.63;;;;;;;;;;5038141;28;20052;-70
2023/06/24 04:50:27;;;;;;;3.28;2.10;;;;;;;;;;5035044;28;20075;-67
2023/06/24 04:52:56;;;;;;;2.97;1.80;;;;;;;;;;5033410;28;20426;-67
2023/06/24 04:55:26;;;;;;;4.45;2.53;;;;;;;;;;5031750;28;20352;-67
2023/06/24 04:57:54;;;;;;;3.08;1.67;;;;;;;;;;5040253;28;20098;-67
2023/06/24 05:00:24;;;;;;;3.67;2.10;;;;;;;;;;5036035;28;20072;-72
2023/06/24 05:02:52;;;;;;;2.75;1.63;;;;;;;;;;5036405;28;20049;-74
2023/06/24 05:05:21;;;;;;;3.70;1.92;;;;;;;;;;5033623;28;20061;-68
2023/06/24 05:07:50;;;;;;;3.35;2.13;;;;;;;;;;5042141;28;20053;-67
2023/06/24 05:10:18;;;;;;;3.90;2.33;;;;;;;;;;5036814;28;21649;-69
2023/06/24 05:12:48;;;;;;;3.38;1.90;;;;;;;;;;5040593;28;20385;-70
2023/06/24 05:15:16;;;;;;;3.30;1.70;;;;;;;;;;5040349;28;20072;-68
2023/06/24 05:17:45;;;;;;;3.90;1.65;;;;;;;;;;5042145;28;20136;-72
2023/06/24 05:20:13;;;;;;;3.25;2.03;;;;;;;;;;5038807;28;20460;-67
2023/06/24 05:22:42;;;;;;;3.05;1.70;;;;;;;;;;5038871;28;20494;-71
2023/06/24 05:25:10;;;;;;;3.38;2.00;;;;;;;;;;5036820;28;20048;-68
2023/06/24 05:27:39;;;;;;;3.38;2.00;;;;;;;;;;5035389;28;20441;-67
2023/06/24 05:30:12;;;;;;;3.42;1.98;;;;;;;;;;5039312;28;20185;-74
2023/06/24 05:32:41;;;;;;;4.85;2.35;;;;;;;;;;5038976;28;20505;-71
2023/06/24 05:35:09;;;;;;;3.70;2.00;;;;;;;;;;5032727;28;20425;-69
2023/06/24 05:37:38;;;;;;;3.00;1.83;;;;;;;;;;5034563;28;20045;-69
2023/06/24 05:40:07;;;;;;;3.35;1.98;;;;;;;;;;5035831;28;20057;-67
2023/06/24 05:42:36;;;;;;;4.38;2.03;;;;;;;;;;5035707;28;20521;-70
2023/06/24 05:45:05;;;;;;;2.95;1.73;;;;;;;;;;5038931;28;20064;-67
2023/06/24 05:47:34;;;;;;;3.58;1.90;;;;;;;;;;5035722;28;20126;-67
2023/06/24 05:50:03;;;;;;;4.40;2.25;;;;;;;;;;5036849;28;20045;-68
2023/06/24 05:52:31;;;;;;;4.22;2.03;;;;;;;;;;5037323;28;20044;-67
2023/06/24 05:55:00;;;;;;;4.05;2.15;;;;;;;;;;5037368;28;20106;-66
2023/06/24 05:57:28;;;;;;;4.10;2.00;;;;;;;;;;5038356;28;21259;-71
2023/06/24 05:59:56;;;;;;;3.42;2.20;;;;;;;;;;5034825;28;20799;-68
2023/06/24 06:02:25;;;;;;;3.05;1.73;;;;;;;;;;5035887;28;20052;-68
2023/06/24 06:04:55;;;;;;;3.60;2.30;;;;;;;;;;5033346;28;20057;-69
2023/06/24 06:07:23;;;;;;;2.92;1.80;;;;;;;;;;5030466;28;20048;-67
2023/06/24 06:09:52;;;;;;;5.03;1.70;;;;;;;;;;5036041;28;20122;-67
2023/06/24 06:12:20;;;;;;;3.20;1.88;;;;;;;;;;5035357;28;20391;-68
2023/06/24 06:14:49;;;;;;;1.98;1.40;;;;;;;;;;5034547;28;20056;-67
2023/06/24 06:17:17;;;;;;;5.47;2.03;;;;;;;;;;5034662;28;20045;-71
2023/06/24 06:19:46;;;;;;;3.05;1.70;;;;;;;;;;5036961;28;20134;-67
2023/06/24 06:22:18;;;;;;;2.40;1.65;;;;;;;;;;5037844;28;20049;-73
2023/06/24 06:24:47;;;;;;;3.63;1.98;;;;;;;;;;5036827;28;20136;-68
2023/06/24 06:27:15;;;;;;;3.92;1.65;;;;;;;;;;5036973;28;20490;-67
2023/06/24 06:29:44;;;;;;;4.30;1.70;;;;;;;;;;5037456;28;20045;-69
2023/06/24 06:32:12;;;;;;;4.38;1.67;;;;;;;;;;5036485;28;20199;-66
2023/06/24 06:34:40;;;;;;;2.53;1.58;;;;;;;;;;5033481;28;20076;-66
2023/06/24 06:37:09;;;;;;;3.75;1.73;;;;;;;;;;5033458;28;20559;-68
2023/06/24 06:39:38;;;;;;;2.65;1.80;;;;;;;;;;5035439;28;20075;-73
2023/06/24 06:42:07;;;;;;;3.58;1.70;;;;;;;;;;5035683;28;20565;-71
2023/06/24 06:44:36;;;;;;;4.05;1.95;;;;;;;;;;5034260;28;20506;-73
2023/06/24 06:47:06;;;;;;;2.70;1.50;;;;;;;;;;5031156;28;20353;-68
2023/06/24 06:49:35;;;;;;;17.75;2.80;;;;;;;;;;5034045;28;20102;-71
2023/06/24 06:52:03;;;;;;;3.97;1.80;;;;;;;;;;5034347;28;20098;-72
2023/06/24 06:54:32;;;;;;;6.93;2.10;;;;;;;;;;5032629;28;20486;-69
2023/06/24 06:57:03;;;;;;;4.65;1.90;;;;;;;;;;5032400;28;21159;-70
2023/06/24 06:59:32;;;;;;;2.78;1.70;;;;;;;;;;5032407;28;20049;-66
2023/06/24 07:02:00;;;;;;;5.38;1.90;;;;;;;;;;5028988;28;20071;-73
2023/06/24 07:04:30;;;;;;;2.38;1.50;;;;;;;;;;5030722;28;20055;-69
2023/06/24 07:06:59;;;;;;;1.75;1.45;;;;;;;;;;5034616;28;20096;-76
2023/06/24 07:09:27;;;;;;;3.47;1.70;;;;;;;;;;5035397;28;20123;-72
2023/06/24 07:11:56;;;;;;;3.75;1.75;;;;;;;;;;5033609;28;20489;-68
2023/06/24 07:14:26;;;;;;;4.43;1.70;;;;;;;;;;5031614;28;20061;-69
2023/06/24 07:16:54;;;;;;;2.83;1.70;;;;;;;;;;5035418;28;20049;-69
2023/06/24 07:19:23;;;;;;;11.68;2.83;;;;;;;;;;5033263;28;20073;-69
2023/06/24 07:21:51;;;;;;;5.47;1.77;;;;;;;;;;5031245;28;20184;-69
2023/06/24 07:24:19;;;;;;;2.90;1.40;;;;;;;;;;5032427;28;20057;-69
2023/06/24 07:26:48;;;;;;;5.85;1.85;;;;;;;;;;5034773;28;20545;-69
2023/06/24 07:29:16;;;;;;;1.73;1.40;;;;;;;;;;5031529;28;20409;-70
2023/06/24 07:31:46;;;;;;;5.00;1.58;;;;;;;;;;5034893;28;20313;-69
2023/06/24 07:34:15;;;;;;;3.20;1.52;;;;;;;;;;5033016;28;20172;-72
2023/06/24 07:36:43;;;;;;;2.03;1.40;;;;;;;;;;5033761;28;20057;-72
2023/06/24 07:39:12;;;;;;;5.45;1.60;;;;;;;;;;5039186;28;20569;-68
2023/06/24 07:41:42;;;;;;;9.45;1.60;;;;;;;;;;5036149;28;20139;-71
2023/06/24 07:44:10;;;;;;;3.75;1.38;;;;;;;;;;5036115;28;20053;-68
2023/06/24 07:46:39;;;;;;;2.67;1.48;;;;;;;;;;5035834;28;20049;-69
2023/06/24 07:49:09;;;;;;;3.22;1.50;;;;;;;;;;5037823;28;20076;-69
2023/06/24 07:51:37;;;;;;;2.53;1.20;;;;;;;;;;5037809;28;20632;-70
2023/06/24 07:54:06;;;;;;;3.45;1.83;;;;;;;;;;5033047;28;20114;-74
2023/06/24 07:56:34;;;;;;;1.95;1.50;;;;;;;;;;5037493;28;20142;-70
2023/06/24 07:59:03;;;;;;;2.70;1.75;;;;;;;;;;5034855;28;20048;-69
2023/06/24 08:01:31;;;;;;;5.25;1.73;;;;;;;;;;5033744;28;20049;-73
2023/06/24 08:04:00;;;;;;;3.33;1.58;;;;;;;;;;5036988;28;20061;-72
2023/06/24 08:06:30;;;;;;;2.70;1.40;;;;;;;;;;5036845;28;20056;-70
2023/06/24 08:08:58;;;;;;;3.83;2.28;;;;;;;;;;5038778;28;20044;-69
2023/06/24 08:11:27;;;;;;;5.47;1.55;;;;;;;;;;5034591;28;20352;-69
2023/06/24 08:13:55;;;;;;;3.42;1.67;;;;;;;;;;5037391;28;20088;-69
2023/06/24 08:16:24;;;;;;;3.08;1.70;;;;;;;;;;5035588;28;20098;-69
2023/06/24 08:18:53;;;;;;;4.53;1.73;;;;;;;;;;5038701;28;20099;-72
2023/06/24 08:21:21;;;;;;;2.63;1.60;;;;;;;;;;5034638;28;20049;-69
2023/06/24 08:23:51;;;;;;;4.20;2.05;;;;;;;;;;5033487;28;20052;-69
2023/06/24 08:26:22;;;;;;;3.78;1.70;;;;;;;;;;5033104;28;20083;-72
2023/06/24 08:28:50;;;;;;;3.50;1.85;;;;;;;;;;5032840;28;20493;-72
2023/06/24 08:31:22;;;;;;;4.05;2.08;;;;;;;;;;5029019;28;20128;-69
2023/06/24 08:33:53;;;;;;;3.17;1.70;;;;;;;;;;5033350;28;20360;-69
2023/06/24 08:36:24;;;;;;;4.97;2.20;;;;;;;;;;5030777;28;20124;-70
2023/06/24 08:38:53;;;;;;;2.80;1.77;;;;;;;;;;5029835;28;20053;-69
2023/06/24 08:41:22;;;;;;;2.03;1.52;;;;;;;;;;5035254;28;20049;-70
2023/06/24 08:43:50;;;;;;;4.43;1.88;;;;;;;;;;5032704;28;20061;-73
2023/06/24 08:46:19;;;;;;;2.50;1.55;;;;;;;;;;5035637;28;20386;-69
2023/06/24 08:48:49;;;;;;;2.92;1.70;;;;;;;;;;5030427;28;20524;-69
2023/06/24 08:51:20;;;;;;;4.95;2.03;;;;;;;;;;5029268;28;20059;-70
2023/06/24 08:53:50;;;;;;;3.83;1.75;;;;;;;;;;5031376;28;20053;-73
2023/06/24 08:56:20;;;;;;;3.70;2.13;;;;;;;;;;5027430;28;20576;-70
2023/06/24 08:58:48;;;;;;;4.57;2.00;;;;;;;;;;5033849;28;20166;-73
2023/06/24 09:01:16;;;;;;;4.45;1.75;;;;;;;;;;5027524;28;20045;-70
2023/06/24 09:03:45;;;;;;;4.78;2.38;;;;;;;;;;5025448;28;20059;-71
2023/06/24 09:06:14;;;;;;;3.85;2.10;;;;;;;;;;5029272;28;20051;-71
2023/06/24 09:08:42;;;;;;;6.13;2.28;;;;;;;;;;5031093;28;20076;-70
2023/06/24 09:11:10;;;;;;;4.53;2.05;;;;;;;;;;5033403;28;20049;-72
2023/06/24 09:13:40;;;;;;;3.30;2.00;;;;;;;;;;5037349;28;20444;-69
2023/06/24 09:16:15;;;;;;;4.40;2.08;;;;;;;;;;5029028;28;20057;-70
2023/06/24 09:18:49;;;;;;;4.13;2.20;;;;;;;;;;5036557;28;20044;-70
2023/06/24 09:21:23;;;;;;;5.05;2.13;;;;;;;;;;5035138;28;20049;-70
2023/06/24 09:23:53;;;;;;;3.53;2.15;;;;;;;;;;5036052;28;20076;-70
2023/06/24 09:26:24;;;;;;;4.20;2.28;;;;;;;;;;5035147;28;20464;-69
2023/06/24 09:28:54;;;;;;;3.33;1.80;;;;;;;;;;5034009;28;20041;-70
2023/06/24 09:31:23;;;;;;;3.03;1.95;;;;;;;;;;5035118;28;20072;-70
2023/06/24 09:33:52;;;;;;;3.20;1.90;;;;;;;;;;5035438;28;20056;-70
2023/06/24 09:36:20;;;;;;;5.72;2.03;;;;;;;;;;5036526;28;20053;-71
2023/06/24 09:38:49;;;;;;;4.15;2.20;;;;;;;;;;5033320;28;20049;-69
2023/06/24 09:41:18;;;;;;;4.50;2.08;;;;;;;;;;5036643;28;20186;-72
2023/06/24 09:43:47;;;;;;;3.72;2.25;;;;;;;;;;5034707;28;20056;-73
2023/06/24 09:46:17;;;;;;;3.05;1.55;;;;;;;;;;5036591;28;20131;-70
2023/06/24 09:48:46;;;;;;;3.72;2.25;;;;;;;;;;5035268;28;20532;-69
2023/06/24 09:51:14;;;;;;;3.60;2.08;;;;;;;;;;5036557;28;20131;-68
2023/06/24 09:53:44;;;;;;;4.85;2.20;;;;;;;;;;5032393;28;20166;-69
2023/06/24 09:56:15;;;;;;;2.67;1.70;;;;;;;;;;5036072;28;20044;-71
2023/06/24 09:58:45;;;;;;;4.07;2.05;;;;;;;;;;5036687;28;20048;-69
2023/06/24 10:01:16;;;;;;;2.78;1.75;;;;;;;;;;5033091;28;20052;-69
2023/06/24 10:03:46;;;;;;;3.10;1.98;;;;;;;;;;5033801;28;20056;-71
2023/06/24 10:06:14;;;;;;;4.03;2.42;;;;;;;;;;5035898;28;20052;-69
2023/06/24 10:08:43;;;;;;;3.58;2.20;;;;;;;;;;5034695;28;20575;-70
2023/06/24 10:11:12;;;;;;;6.03;2.15;;;;;;;;;;5033225;28;20049;-70
2023/06/24 10:13:40;;;;;;;3.40;2.08;;;;;;;;;;5035249;28;20063;-69
2023/06/24 10:16:09;;;;;;;4.32;2.03;;;;;;;;;;5033895;28;20056;-70
2023/06/24 10:18:38;;;;;;;4.18;2.53;;;;;;;;;;5035877;28;20150;-68
2023/06/24 10:21:08;;;;;;;4.18;2.30;;;;;;;;;;5032495;28;20240;-70
2023/06/24 10:23:41;;;;;;;2.78;1.73;;;;;;;;;;5035462;28;20052;-69
2023/06/24 10:26:10;;;;;;;4.78;2.03;;;;;;;;;;5036288;28;20490;-68
2023/06/24 10:28:57;;;;;;;3.05;1.95;;;;;;;;;;5031863;28;20140;-69
2023/06/24 10:31:52;;;;;;;3.10;1.90;;;;;;;;;;5030917;28;20061;-68
2023/06/24 10:34:29;;;;;;;3.22;1.88;;;;;;;;;;5030677;28;20060;-72
2023/06/24 10:37:00;;;;;;;3.40;2.13;;;;;;;;;;5029080;28;20783;-71
2023/06/24 10:39:56;;;;;;;4.95;1.90;;;;;;;;;;5031582;28;20056;-69
2023/06/24 10:42:28;;;;;;;4.88;2.40;;;;;;;;;;5006644;28;20469;-70
2023/06/24 10:44:57;;;;;;;3.30;1.98;;;;;;;;;;5033921;28;20044;-68
2023/06/24 10:47:26;;;;;;;3.03;2.00;;;;;;;;;;5036656;28;20059;-69
2023/06/24 10:49:54;;;;;;;2.58;1.70;;;;;;;;;;5033245;28;20045;-69
2023/06/24 10:52:24;;;;;;;3.90;2.35;;;;;;;;;;5033343;28;20041;-71
2023/06/24 10:54:54;;;;;;;4.35;2.47;;;;;;;;;;5032811;28;20084;-69
2023/06/24 10:57:23;;;;;;;3.10;2.10;;;;;;;;;;5030751;28;20442;-68
2023/06/24 10:59:53;;;;;;;2.42;1.73;;;;;;;;;;5028851;28;20433;-72
2023/06/24 11:02:22;;;;;;;3.67;2.15;;;;;;;;;;5033471;28;20065;-69
2023/06/24 11:04:51;;;;;;;3.45;2.08;;;;;;;;;;5031022;28;20613;-70
2023/06/24 11:07:20;;;;;;;4.40;2.20;;;;;;;;;;5029774;28;20115;-69
2023/06/24 11:09:54;;;;;;;2.55;1.73;;;;;;;;;;5035515;28;20310;-73
2023/06/24 11:12:24;;;;;;;2.78;1.80;;;;;;;;;;5038630;28;20053;-71
2023/06/24 11:14:53;;;;;;;4.10;2.33;;;;;;;;;;5034320;28;20053;-68
2023/06/24 11:17:21;;;;;;;3.67;2.17;;;;;;;;;;5037918;28;20505;-69
2023/06/24 11:19:50;;;;;;;2.42;1.80;;;;;;;;;;5037815;28;20133;-70
2023/06/24 11:22:18;;;;;;;3.25;1.90;;;;;;;;;;5031967;28;20502;-68
2023/06/24 11:24:48;;;;;;;2.35;1.70;;;;;;;;;;5025604;28;20568;-68
2023/06/24 11:27:18;;;;;;;4.22;1.90;;;;;;;;;;5035133;28;20036;-69
2023/06/24 11:29:47;;;;;;;3.67;1.95;;;;;;;;;;5038576;28;20493;-69
2023/06/24 11:32:15;;;;;;;2.95;1.75;;;;;;;;;;5033908;28;20136;-69
2023/06/24 11:34:43;;;;;;;2.78;1.80;;;;;;;;;;5036330;28;20147;-69
2023/06/24 11:37:13;;;;;;;2.63;1.67;;;;;;;;;;5030178;28;20599;-73
2023/06/24 11:39:41;;;;;;;6.55;1.80;;;;;;;;;;5029323;28;20733;-70
2023/06/24 11:42:10;;;;;;;3.40;1.75;;;;;;;;;;5028672;28;20053;-69
2023/06/24 11:44:44;;;;;;;3.00;1.73;;;;;;;;;;5034831;28;20083;-68
2023/06/24 11:47:13;;;;;;;3.05;2.00;;;;;;;;;;5038357;28;20044;-68
2023/06/24 11:49:50;;;;;;;3.30;2.05;;;;;;;;;;5036609;28;20059;-72
2023/06/24 11:52:19;;;;;;;3.47;2.20;;;;;;;;;;5038766;28;20063;-68
2023/06/24 11:54:47;;;;;;;3.35;1.90;;;;;;;;;;5038461;28;20114;-68
2023/06/24 11:57:15;;;;;;;4.70;2.42;;;;;;;;;;5033148;28;20380;-67
2023/06/24 11:59:45;;;;;;;3.22;2.17;;;;;;;;;;5039325;28;20138;-70
2023/06/24 12:02:15;;;;;;;5.65;2.15;;;;;;;;;;5032834;28;20107;-68
2023/06/24 12:04:45;;;;;;;3.35;2.08;;;;;;;;;;5033999;28;20052;-70
2023/06/24 12:07:14;;;;;;;2.70;1.92;;;;;;;;;;5038562;28;20516;-70
2023/06/24 12:09:43;;;;;;;3.42;1.75;;;;;;;;;;5033990;28;20560;-69
2023/06/24 12:12:12;;;;;;;3.70;1.75;;;;;;;;;;5039138;28;20045;-69
2023/06/24 12:14:40;;;;;;;4.22;2.28;;;;;;;;;;5033070;28;20559;-72
2023/06/24 12:17:10;;;;;;;3.80;2.08;;;;;;;;;;5036944;28;20052;-69
2023/06/24 12:19:38;;;;;;;4.93;2.50;;;;;;;;;;5036027;28;20045;-70
2023/06/24 12:22:07;;;;;;;3.75;2.15;;;;;;;;;;5039070;28;21567;-69
2023/06/24 12:24:35;;;;;;;4.03;2.25;;;;;;;;;;5038020;28;20081;-69
2023/06/24 12:27:04;;;;;;;2.90;2.00;;;;;;;;;;5035282;28;20481;-69
2023/06/24 12:29:35;;;;;;;4.32;1.80;;;;;;;;;;5034638;28;20132;-71
2023/06/24 12:32:03;;;;;;;3.38;1.88;;;;;;;;;;5036440;28;20045;-68
2023/06/24 12:34:33;;;;;;;3.00;1.58;;;;;;;;;;5037509;28;20049;-69
2023/06/24 12:37:01;;;;;;;7.35;2.17;;;;;;;;;;5035777;28;20053;-68
2023/06/24 12:39:30;;;;;;;2.75;1.80;;;;;;;;;;5035272;28;20145;-70
2023/06/24 12:41:58;;;;;;;4.20;2.25;;;;;;;;;;5035876;28;21153;-70
2023/06/24 12:44:27;;;;;;;3.55;1.98;;;;;;;;;;5036605;28;20048;-68
2023/06/24 12:46:55;;;;;;;8.63;2.40;;;;;;;;;;5039039;28;20433;-68
2023/06/24 12:49:23;;;;;;;3.13;1.95;;;;;;;;;;5033368;28;20267;-68
2023/06/24 12:51:53;;;;;;;4.30;2.15;;;;;;;;;;5036564;28;20504;-70
2023/06/24 12:54:22;;;;;;;3.72;2.42;;;;;;;;;;5039022;28;20846;-67
2023/06/24 12:56:50;;;;;;;3.03;1.90;;;;;;;;;;5037215;28;20081;-69
2023/06/24 12:59:29;;;;;;;2.72;1.75;;;;;;;;;;5034719;28;20049;-71
2023/06/24 13:01:57;;;;;;;3.47;1.90;;;;;;;;;;5035668;28;20075;-68
2023/06/24 13:04:26;;;;;;;5.05;2.22;;;;;;;;;;5034555;28;20045;-68
2023/06/24 13:06:56;;;;;;;2.97;1.73;;;;;;;;;;5037597;28;20049;-68
2023/06/24 13:09:25;;;;;;;2.08;1.67;;;;;;;;;;5029936;28;20637;-74
2023/06/24 13:11:53;;;;;;;3.45;2.00;;;;;;;;;;5037451;28;20051;-73
2023/06/24 13:14:22;;;;;;;3.00;2.05;;;;;;;;;;5035126;28;20049;-68
2023/06/24 13:16:50;;;;;;;4.45;1.90;;;;;;;;;;5037438;28;20080;-70
2023/06/24 13:19:19;;;;;;;2.88;1.70;;;;;;;;;;5038640;28;20053;-69
2023/06/24 13:21:47;;;;;;;2.55;1.80;;;;;;;;;;5038082;28;20045;-71
2023/06/24 13:24:17;;;;;;;3.25;1.77;;;;;;;;;;5038803;28;20135;-67
2023/06/24 13:26:46;;;;;;;3.47;1.60;;;;;;;;;;5036811;28;20063;-68
2023/06/24 13:29:14;;;;;;;2.92;1.50;;;;;;;;;;5039189;28;20080;-70
2023/06/24 13:31:42;;;;;;;2.72;2.05;;;;;;;;;;5038164;28;20524;-68
2023/06/24 13:34:11;;;;;;;3.63;1.80;;;;;;;;;;5038456;28;20490;-68
2023/06/24 13:36:40;;;;;;;4.88;1.80;;;;;;;;;;5037680;28;20045;-68
2023/06/24 13:39:11;;;;;;;3.90;2.00;;;;;;;;;;5035861;28;20053;-70
2023/06/24 13:41:41;;;;;;;5.15;1.98;;;;;;;;;;5028959;28;20087;-75
2023/06/24 13:44:09;;;;;;;2.60;1.75;;;;;;;;;;5036639;28;20109;-70
2023/06/24 13:46:38;;;;;;;2.60;1.88;;;;;;;;;;5037900;28;20893;-72
2023/06/24 13:49:06;;;;;;;3.47;1.90;;;;;;;;;;5037781;28;20097;-68
2023/06/24 13:51:35;;;;;;;2.70;1.85;;;;;;;;;;5036942;28;20060;-69
2023/06/24 13:54:03;;;;;;;2.60;2.10;;;;;;;;;;5039042;28;20138;-69
2023/06/24 13:56:32;;;;;;;3.03;1.88;;;;;;;;;;5037450;28;20069;-71
2023/06/24 13:59:02;;;;;;;4.63;2.10;;;;;;;;;;5037418;28;20149;-74
2023/06/24 14:01:31;;;;;;;3.25;1.77;;;;;;;;;;5036534;28;20378;-69
2023/06/24 14:04:00;;;;;;;3.17;1.80;;;;;;;;;;5036528;28;20065;-71
2023/06/24 14:06:28;;;;;;;3.78;1.90;;;;;;;;;;5038032;28;20045;-70
2023/06/24 14:08:57;;;;;;;3.22;1.83;;;;;;;;;;5036979;28;20127;-70
2023/06/24 14:11:25;;;;;;;2.85;1.65;;;;;;;;;;5035633;28;20037;-71
2023/06/24 14:13:53;;;;;;;3.25;1.98;;;;;;;;;;5036427;28;20053;-69
2023/06/24 14:16:25;;;;;;;2.75;1.90;;;;;;;;;;5035557;28;20041;-75
2023/06/24 14:18:53;;;;;;;3.08;1.83;;;;;;;;;;5039052;28;20099;-68
2023/06/24 14:21:22;;;;;;;2.22;1.75;;;;;;;;;;5037952;28;20053;-70
2023/06/24 14:23:50;;;;;;;2.88;1.80;;;;;;;;;;5036821;28;20048;-75
2023/06/24 14:26:22;;;;;;;4.43;2.45;;;;;;;;;;5035319;28;20040;-70
2023/06/24 14:28:50;;;;;;;1.98;1.48;;;;;;;;;;5037485;28;20045;-69
2023/06/24 14:31:19;;;;;;;2.40;1.60;;;;;;;;;;5031496;28;20087;-67
2023/06/24 14:33:48;;;;;;;4.78;2.67;;;;;;;;;;5033222;28;20041;-68
2023/06/24 14:36:17;;;;;;;4.18;2.05;;;;;;;;;;5035141;28;20080;-72
2023/06/24 14:38:45;;;;;;;6.22;2.40;;;;;;;;;;5032832;28;20049;-71
2023/06/24 14:41:14;;;;;;;2.70;1.90;;;;;;;;;;5037767;28;20079;-68
2023/06/24 14:43:42;;;;;;;2.63;1.65;;;;;;;;;;5035682;28;20714;-66
2023/06/24 14:46:10;;;;;;;2.65;1.58;;;;;;;;;;5040881;28;20057;-69
2023/06/24 14:48:39;;;;;;;3.92;2.50;;;;;;;;;;5043382;28;20490;-71
2023/06/24 14:51:09;;;;;;;3.00;2.10;;;;;;;;;;5043220;28;20135;-73
2023/06/24 14:53:37;;;;;;;4.00;2.15;;;;;;;;;;5042323;28;20068;-69
2023/06/24 14:56:06;;;;;;;4.20;2.08;;;;;;;;;;5043330;28;20053;-68